createdAt,value
2022-11-02T00:02:07.661Z,11.27
2022-11-02T00:05:12.785Z,11.82
2022-11-02T00:08:14.884Z,11.25
2022-11-02T00:11:16.774Z,11.63
2022-11-02T00:14:18.878Z,11.40
2022-11-02T00:17:20.977Z,11.13
2022-11-02T00:20:23.222Z,11.02
2022-11-02T00:23:25.450Z,11.15
2022-11-02T00:26:29.078Z,10.67
2022-11-02T00:29:33.792Z,11.18
2022-11-02T00:32:36.647Z,11.18
2022-11-02T00:35:39.739Z,10.38
2022-11-02T00:38:41.814Z,10.90
2022-11-02T00:41:43.709Z,10.48
2022-11-02T00:44:45.787Z,11.07
2022-11-02T00:47:47.736Z,10.40
2022-11-02T00:50:49.849Z,11.10
2022-11-02T00:53:51.930Z,11.27
2022-11-02T00:56:54.061Z,10.67
2022-11-02T00:59:56.866Z,10.23
2022-11-02T01:03:02.826Z,9.77
2022-11-02T01:06:09.458Z,10.30
2022-11-02T01:09:14.211Z,10.67
2022-11-02T01:12:16.333Z,10.03
2022-11-02T01:15:18.446Z,11.27
2022-11-02T01:18:20.336Z,10.30
2022-11-02T01:21:23.286Z,10.03
2022-11-02T01:24:25.418Z,10.57
2022-11-02T01:27:27.572Z,9.97
2022-11-02T01:30:29.554Z,9.90
2022-11-02T01:33:31.965Z,10.60
2022-11-02T01:36:33.903Z,10.60
2022-11-02T01:39:36.044Z,11.00
2022-11-02T01:42:37.926Z,9.73
2022-11-02T01:45:40.165Z,11.80
2022-11-02T01:48:47.629Z,11.00
2022-11-02T01:51:57.851Z,10.83
2022-11-02T01:55:12.175Z,11.23
2022-11-02T01:58:14.309Z,11.43
2022-11-02T02:01:16.275Z,11.93
2022-11-02T02:04:18.997Z,11.83
2022-11-02T02:07:24.212Z,11.40
2022-11-02T02:10:26.267Z,12.17
2022-11-02T02:13:29.297Z,11.37
2022-11-02T02:16:53.414Z,11.83
2022-11-02T02:20:10.128Z,11.93
2022-11-02T02:23:35.360Z,12.33
2022-11-02T02:27:06.899Z,12.30
2022-11-02T02:30:11.156Z,11.73
2022-11-02T02:33:42.766Z,12.10
2022-11-02T02:40:38.418Z,12.33
2022-11-02T02:43:49.475Z,13.23
2022-11-02T02:47:02.284Z,13.73
2022-11-02T02:50:15.003Z,12.73
2022-11-02T02:53:24.992Z,13.17
2022-11-02T02:56:31.997Z,12.97
2022-11-02T02:59:45.850Z,13.30
2022-11-02T03:03:01.048Z,12.40
2022-11-02T03:06:26.120Z,12.73
2022-11-02T03:09:36.940Z,12.90
2022-11-02T03:12:50.713Z,13.93
2022-11-02T03:16:01.274Z,13.20
2022-11-02T03:19:27.726Z,13.57
2022-11-02T03:23:05.070Z,14.30
2022-11-02T03:26:18.283Z,13.90
2022-11-02T03:29:44.167Z,13.53
2022-11-02T03:32:53.971Z,13.90
2022-11-02T03:36:00.408Z,12.93
2022-11-02T03:39:08.995Z,13.00
2022-11-02T03:42:15.480Z,13.40
2022-11-02T03:45:21.237Z,13.73
2022-11-02T03:48:29.286Z,12.80
2022-11-02T03:51:34.373Z,12.93
2022-11-02T03:54:58.884Z,14.73
2022-11-02T03:58:00.927Z,14.30
2022-11-02T04:01:08.265Z,13.87
2022-11-02T04:04:10.888Z,14.27
2022-11-02T04:07:13.641Z,13.30
2022-11-02T04:10:15.679Z,14.73
2022-11-02T04:13:36.426Z,14.93
2022-11-02T04:16:38.542Z,14.27
2022-11-02T04:19:44.144Z,13.87
2022-11-02T04:23:08.135Z,15.07
2022-11-02T04:26:10.318Z,15.13
2022-11-02T04:29:12.295Z,15.87
2022-11-02T04:32:14.446Z,17.30
2022-11-02T04:35:16.377Z,16.33
2022-11-02T04:38:37.396Z,17.00
2022-11-02T04:41:42.080Z,16.53
2022-11-02T04:44:44.224Z,17.30
2022-11-02T04:47:46.161Z,17.53
2022-11-02T04:50:48.295Z,18.00
2022-11-02T04:53:51.981Z,17.23
2022-11-02T04:56:54.051Z,19.17
2022-11-02T04:59:56.142Z,18.20
2022-11-02T05:02:58.385Z,19.07
2022-11-02T05:06:00.317Z,18.53
2022-11-02T05:09:02.528Z,17.23
2022-11-02T05:12:07.784Z,17.83
2022-11-02T05:15:10.170Z,19.50
2022-11-02T05:18:17.640Z,18.10
2022-11-02T05:21:21.989Z,17.93
2022-11-02T05:24:23.889Z,17.23
2022-11-02T05:27:26.047Z,17.07
2022-11-02T05:30:27.958Z,16.27
2022-11-02T05:33:31.222Z,15.87
2022-11-02T05:36:33.079Z,15.83
2022-11-02T05:39:37.194Z,15.30
2022-11-02T05:42:39.064Z,15.93
2022-11-02T05:45:42.361Z,16.03
2022-11-02T05:48:44.339Z,14.77
2022-11-02T05:51:46.530Z,14.23
2022-11-02T05:54:48.400Z,14.87
2022-11-02T05:57:52.537Z,14.83
2022-11-02T06:00:54.572Z,14.53
2022-11-02T06:03:57.124Z,14.37
2022-11-02T06:06:59.429Z,14.13
2022-11-02T06:10:02.676Z,13.97
2022-11-02T06:13:05.070Z,14.27
2022-11-02T06:16:09.637Z,13.30
2022-11-02T06:19:11.615Z,14.50
2022-11-02T06:22:13.773Z,14.47
2022-11-02T06:25:16.469Z,13.47
2022-11-02T06:28:19.042Z,14.20
2022-11-02T06:31:20.981Z,13.23
2022-11-02T06:34:23.157Z,13.30
2022-11-02T06:37:25.081Z,13.20
2022-11-02T06:40:28.296Z,13.30
2022-11-02T06:43:30.695Z,14.20
2022-11-02T06:46:32.846Z,14.87
2022-11-02T06:49:34.776Z,15.00
2022-11-02T06:52:44.276Z,13.60
2022-11-02T06:55:51.056Z,13.07
2022-11-02T06:58:53.316Z,13.00
2022-11-02T07:01:55.405Z,11.90
2022-11-02T07:04:57.794Z,12.90
2022-11-02T07:08:00.207Z,12.60
2022-11-02T07:11:02.316Z,16.70
2022-11-02T07:14:04.198Z,13.53
2022-11-02T07:17:06.436Z,12.53
2022-11-02T07:20:10.669Z,11.67
2022-11-02T07:23:12.802Z,11.80
2022-11-02T07:26:14.736Z,11.90
2022-11-02T07:29:17.583Z,10.40
2022-11-02T07:32:19.605Z,9.70
2022-11-02T07:35:21.837Z,10.10
2022-11-02T07:38:23.741Z,10.07
2022-11-02T07:41:25.860Z,11.18
2022-11-02T07:44:27.769Z,9.53
2022-11-02T07:47:30.874Z,10.10
2022-11-02T07:50:32.836Z,9.80
2022-11-02T07:53:35.185Z,9.50
2022-11-02T07:56:37.423Z,8.87
2022-11-02T07:59:39.662Z,8.80
2022-11-02T08:02:41.540Z,9.43
2022-11-02T08:05:43.791Z,9.18
2022-11-02T08:08:45.678Z,9.05
2022-11-02T08:12:07.821Z,8.38
2022-11-02T08:15:10.222Z,10.53
2022-11-02T08:18:23.793Z,14.80
2022-11-02T08:21:26.396Z,9.27
2022-11-02T08:24:28.547Z,9.50
2022-11-02T08:27:30.458Z,7.45
2022-11-02T08:30:33.617Z,7.33
2022-11-02T08:33:36.763Z,7.37
2022-11-02T08:36:38.968Z,6.77
2022-11-02T08:39:40.973Z,6.27
2022-11-02T08:42:43.499Z,6.18
2022-11-02T08:46:14.348Z,5.27
2022-11-02T08:49:08.176Z,5.57
2022-11-02T08:52:10.158Z,5.37
2022-11-02T08:55:12.656Z,5.82
2022-11-02T08:58:14.572Z,5.07
2022-11-02T09:01:16.863Z,5.70
2022-11-02T09:04:18.843Z,5.87
2022-11-02T09:07:21.375Z,6.10
2022-11-02T09:10:23.510Z,5.50
2022-11-02T09:13:26.221Z,5.40
2022-11-02T09:16:28.351Z,4.90
2022-11-02T09:19:30.592Z,4.95
2022-11-02T09:22:32.549Z,5.10
2022-11-02T09:25:34.742Z,5.40
2022-11-02T09:28:36.759Z,5.28
2022-11-02T09:31:38.980Z,5.25
2022-11-02T09:34:40.960Z,5.00
2022-11-02T09:37:49.908Z,4.85
2022-11-02T09:41:12.708Z,4.80
2022-11-02T09:44:27.623Z,5.60
2022-11-02T09:51:02.229Z,4.57
2022-11-02T09:54:19.621Z,5.65
2022-11-02T09:57:29.138Z,4.78
2022-11-02T10:00:36.511Z,4.40
2022-11-02T10:03:49.218Z,5.03
2022-11-02T10:07:11.111Z,4.85
2022-11-02T10:10:22.708Z,4.10
2022-11-02T10:14:00.891Z,4.53
2022-11-02T10:17:16.668Z,4.30
2022-11-02T10:20:26.639Z,4.63
2022-11-02T10:23:41.677Z,4.68
2022-11-02T10:26:43.628Z,3.65
2022-11-02T10:29:55.396Z,4.88
2022-11-02T10:32:57.619Z,5.28
2022-11-02T10:36:24.240Z,4.82
2022-11-02T10:40:01.328Z,4.45
2022-11-02T10:43:36.342Z,3.63
2022-11-02T10:47:02.732Z,4.72
2022-11-02T10:50:33.065Z,4.60
2022-11-02T10:53:45.577Z,4.57
2022-11-02T10:56:49.419Z,3.67
2022-11-02T11:00:23.210Z,3.90
2022-11-02T11:03:25.363Z,4.13
2022-11-02T11:06:36.105Z,4.10
2022-11-02T11:09:47.224Z,4.40
2022-11-02T11:12:49.279Z,3.88
2022-11-02T11:15:54.216Z,3.80
2022-11-02T11:22:30.596Z,4.00
2022-11-02T11:25:32.550Z,3.55
2022-11-02T11:28:55.669Z,3.55
2022-11-02T11:31:58.526Z,3.22
2022-11-02T11:35:04.943Z,4.15
2022-11-02T11:38:14.315Z,3.25
2022-11-02T11:41:17.495Z,2.92
2022-11-02T11:44:21.211Z,3.03
2022-11-02T11:47:28.220Z,3.60
2022-11-02T11:50:30.774Z,3.72
2022-11-02T11:53:35.576Z,3.13
2022-11-02T11:56:37.515Z,3.00
2022-11-02T11:59:42.794Z,2.85
2022-11-02T12:02:47.208Z,3.88
2022-11-02T12:05:59.776Z,3.25
2022-11-02T12:09:30.077Z,3.15
2022-11-02T12:12:48.554Z,3.33
2022-11-02T12:16:04.781Z,3.08
2022-11-02T12:19:20.259Z,3.08
2022-11-02T12:23:03.991Z,3.28
2022-11-02T12:26:31.554Z,3.92
2022-11-02T12:29:53.652Z,3.28
2022-11-02T12:32:58.903Z,3.20
2022-11-02T12:36:50.836Z,3.05
2022-11-02T12:40:04.403Z,3.05
2022-11-02T12:43:20.073Z,2.85
2022-11-02T12:46:38.995Z,3.60
2022-11-02T12:49:47.340Z,3.13
2022-11-02T12:53:02.672Z,2.90
2022-11-02T12:56:08.842Z,3.20
2022-11-02T12:59:27.472Z,3.33
2022-11-02T13:02:50.594Z,3.40
2022-11-02T13:06:00.921Z,3.13
2022-11-02T13:09:18.257Z,2.78
2022-11-02T13:12:23.566Z,3.25
2022-11-02T13:15:27.839Z,2.58
2022-11-02T13:18:41.109Z,2.80
2022-11-02T13:21:49.187Z,3.05
2022-11-02T13:24:56.439Z,3.03
2022-11-02T13:28:16.637Z,2.60
2022-11-02T13:31:24.427Z,2.50
2022-11-02T13:34:41.248Z,2.65
2022-11-02T13:37:49.658Z,2.28
2022-11-02T13:41:09.350Z,2.25
2022-11-02T13:45:07.463Z,2.30
2022-11-02T13:48:20.053Z,2.35
2022-11-02T13:51:36.998Z,2.17
2022-11-02T13:54:46.159Z,2.78
2022-11-02T13:57:56.066Z,1.70
2022-11-02T14:01:09.416Z,2.22
2022-11-02T14:04:14.347Z,2.58
2022-11-02T14:07:35.502Z,2.72
2022-11-02T14:10:40.983Z,3.25
2022-11-02T14:13:55.126Z,76.35
2022-11-02T14:16:59.361Z,17.38
2022-11-02T14:20:04.849Z,12.63
2022-11-02T14:23:10.116Z,11.95
2022-11-02T14:26:31.881Z,6.40
2022-11-02T14:29:46.174Z,2.88
2022-11-02T14:33:00.932Z,5.10
2022-11-02T14:36:18.468Z,5.13
2022-11-02T14:39:31.826Z,5.85
2022-11-02T14:42:52.354Z,8.02
2022-11-02T14:46:09.305Z,16.77
2022-11-02T14:49:21.861Z,17.10
2022-11-02T14:52:35.725Z,15.25
2022-11-02T14:55:39.307Z,11.38
2022-11-02T14:58:51.489Z,6.28
2022-11-02T15:02:01.462Z,3.90
2022-11-02T15:05:06.865Z,4.13
2022-11-02T15:08:15.292Z,3.78
2022-11-02T15:11:42.220Z,3.97
2022-11-02T15:14:47.402Z,3.88
2022-11-02T15:17:58.458Z,5.32
2022-11-02T15:21:17.824Z,4.88
2022-11-02T15:24:32.993Z,4.93
2022-11-02T15:27:37.656Z,3.22
2022-11-02T15:30:48.960Z,5.50
2022-11-02T15:33:55.528Z,5.47
2022-11-02T15:36:59.579Z,4.90
2022-11-02T15:40:04.956Z,5.97
2022-11-02T15:43:59.381Z,17.25
2022-11-02T15:47:18.050Z,20.15
2022-11-02T15:50:27.124Z,12.37
2022-11-02T15:53:41.324Z,10.53
2022-11-02T15:57:21.879Z,8.27
2022-11-02T16:00:30.301Z,5.77
2022-11-02T16:03:33.487Z,4.23
2022-11-02T16:06:41.505Z,4.20
2022-11-02T16:09:45.925Z,4.60
2022-11-02T16:13:08.036Z,4.77
2022-11-02T16:16:18.224Z,5.53
2022-11-02T16:19:21.932Z,5.43
2022-11-02T16:22:26.560Z,6.27
2022-11-02T16:25:39.620Z,5.97
2022-11-02T16:28:42.588Z,6.20
2022-11-02T16:31:45.406Z,6.87
2022-11-02T16:34:47.575Z,6.27
2022-11-02T16:37:50.330Z,6.33
2022-11-02T16:40:52.525Z,5.30
2022-11-02T16:43:55.942Z,5.90
2022-11-02T16:47:18.157Z,7.30
2022-11-02T16:50:22.950Z,15.67
2022-11-02T16:53:33.239Z,8.17
2022-11-02T16:56:35.747Z,8.00
2022-11-02T16:59:59.764Z,15.97
2022-11-02T17:03:10.778Z,8.60
2022-11-02T17:06:12.793Z,8.50
2022-11-02T17:09:21.035Z,6.60
2022-11-02T17:12:35.457Z,6.60
2022-11-02T17:15:39.831Z,5.10
2022-11-02T17:18:41.792Z,6.40
2022-11-02T17:21:44.469Z,6.30
2022-11-02T17:24:46.858Z,7.37
2022-11-02T17:27:50.694Z,6.00
2022-11-02T17:30:53.187Z,6.40
2022-11-02T17:33:59.112Z,6.10
2022-11-02T17:37:01.086Z,7.10
2022-11-02T17:40:03.563Z,5.03
2022-11-02T17:43:05.627Z,7.87
2022-11-02T17:46:08.595Z,9.37
2022-11-02T17:49:10.707Z,10.10
2022-11-02T17:52:16.411Z,6.53
2022-11-02T17:55:24.469Z,4.60
2022-11-02T17:58:26.664Z,6.00
2022-11-02T18:01:28.875Z,14.23
2022-11-02T18:04:31.178Z,10.97
2022-11-02T18:07:33.144Z,10.17
2022-11-02T18:10:40.386Z,9.73
2022-11-02T18:13:42.301Z,9.40
2022-11-02T18:16:44.742Z,10.53
2022-11-02T18:19:46.609Z,14.57
2022-11-02T18:22:49.330Z,19.10
2022-11-02T18:25:53.914Z,17.93
2022-11-02T18:28:59.017Z,17.47
2022-11-02T18:32:00.962Z,17.60
2022-11-02T18:35:03.394Z,15.93
2022-11-02T18:38:05.527Z,18.43
2022-11-02T18:41:27.835Z,19.40
2022-11-02T18:44:29.856Z,23.50
2022-11-02T18:47:32.666Z,20.63
2022-11-02T18:50:34.659Z,20.73
2022-11-02T18:53:37.407Z,19.60
2022-11-02T18:56:39.319Z,14.87
2022-11-02T18:59:41.490Z,14.30
2022-11-02T19:02:43.498Z,13.03
2022-11-02T19:06:04.396Z,13.40
2022-11-02T19:09:20.287Z,14.13
2022-11-02T19:12:28.154Z,12.90
2022-11-02T19:15:30.426Z,13.83
2022-11-02T19:18:32.573Z,13.33
2022-11-02T19:21:34.457Z,13.50
2022-11-02T19:24:36.634Z,13.27
2022-11-02T19:27:38.551Z,15.40
2022-11-02T19:30:41.104Z,14.20
2022-11-02T19:33:43.358Z,14.53
2022-11-02T19:36:45.673Z,12.50
2022-11-02T19:39:47.629Z,12.27
2022-11-02T19:42:49.927Z,11.20
2022-11-02T19:45:51.973Z,11.47
2022-11-02T19:48:56.835Z,10.60
2022-11-02T19:51:58.799Z,9.93
2022-11-02T19:55:01.018Z,9.77
2022-11-02T19:58:03.013Z,9.77
2022-11-02T20:01:09.767Z,8.97
2022-11-02T20:04:12.164Z,8.57
2022-11-02T20:07:14.458Z,7.93
2022-11-02T20:10:16.489Z,8.23
2022-11-02T20:13:18.684Z,7.10
2022-11-02T20:16:20.859Z,8.10
2022-11-02T20:19:23.056Z,7.43
2022-11-02T20:22:25.040Z,7.47
2022-11-02T20:25:27.704Z,7.60
2022-11-02T20:28:30.584Z,7.67
2022-11-02T20:31:36.181Z,7.30
2022-11-02T20:34:38.112Z,7.33
2022-11-02T20:37:40.365Z,7.13
2022-11-02T20:40:42.292Z,7.83
2022-11-02T20:43:46.271Z,7.40
2022-11-02T20:46:52.729Z,7.33
2022-11-02T20:49:55.384Z,8.03
2022-11-02T20:52:58.885Z,7.80
2022-11-02T20:56:02.026Z,7.37
2022-11-02T20:59:04.256Z,8.70
2022-11-02T21:02:07.125Z,9.00
2022-11-02T21:05:09.488Z,8.40
2022-11-02T21:08:14.825Z,8.13
2022-11-02T21:11:35.217Z,8.93
2022-11-02T21:14:37.445Z,8.47
2022-11-02T21:17:39.351Z,8.47
2022-11-02T21:20:41.608Z,7.67
2022-11-02T21:23:44.340Z,8.33
2022-11-02T21:26:46.533Z,8.93
2022-11-02T21:29:48.563Z,7.63
2022-11-02T21:32:54.323Z,7.50
2022-11-02T21:35:59.012Z,7.00
2022-11-02T21:39:01.332Z,7.23
2022-11-02T21:42:04.288Z,6.80
2022-11-02T21:45:07.848Z,7.37
2022-11-02T21:48:09.694Z,7.13
2022-11-02T21:51:17.678Z,7.00
2022-11-02T21:54:19.623Z,6.20
2022-11-02T21:57:21.850Z,7.63
2022-11-02T22:00:43.975Z,6.90
2022-11-02T22:03:46.977Z,7.37
2022-11-02T22:06:49.922Z,7.73
2022-11-02T22:09:52.084Z,7.07
2022-11-02T22:13:12.630Z,7.23
2022-11-02T22:16:16.876Z,7.23
2022-11-02T22:19:18.793Z,7.97
2022-11-02T22:22:21.071Z,7.63
2022-11-02T22:25:22.971Z,6.90
2022-11-02T22:28:35.197Z,7.23
2022-11-02T22:31:39.599Z,7.00
2022-11-02T22:34:43.555Z,6.70
2022-11-02T22:38:04.245Z,6.53
2022-11-02T22:41:06.481Z,7.40
2022-11-02T22:44:11.575Z,7.90
2022-11-02T22:47:14.258Z,7.27
2022-11-02T22:50:16.394Z,10.67
2022-11-02T22:53:18.545Z,9.63
2022-11-02T22:56:22.037Z,8.40
2022-11-02T22:59:24.168Z,10.30
2022-11-02T23:02:26.158Z,8.57
2022-11-02T23:05:30.254Z,10.03
2022-11-02T23:08:35.254Z,8.13
2022-11-02T23:11:37.791Z,8.43
2022-11-02T23:14:39.729Z,8.17
2022-11-02T23:17:41.896Z,7.93
2022-11-02T23:20:53.093Z,8.37
2022-11-02T23:24:13.691Z,8.63
2022-11-02T23:27:16.085Z,8.27
2022-11-02T23:30:37.310Z,9.80
2022-11-02T23:33:40.922Z,8.27
2022-11-02T23:36:43.059Z,8.67
2022-11-02T23:39:47.907Z,9.43
2022-11-02T23:42:50.143Z,8.40
2022-11-02T23:45:52.057Z,9.17
2022-11-02T23:48:54.246Z,9.33
2022-11-02T23:52:14.929Z,13.13
2022-11-02T23:55:35.866Z,9.63
2022-11-02T23:58:37.835Z,11.57
